»·PEaware :: WAT169 KSNA-KLAS

WAT169 :: KSNA-KLAS

FLIGHT INFORMATION

Flight Status: Arrived
Operator:
Walker Air Transport
More flights by this operator :: More flights under this callsign
Pilot: Marty P. (27464)
Aircraft: BEECH AIRCRAFT SUPER KING AIR 350
(B350)
More flights by this aircraft type
Origin: KSNA John Wayne-Orange Co
United States
Destination: KLAS McCarran Intl
United States
More flights between these airports :: More routes between these airports
Route: +MUSEL8 SLI POM DAG CRESO4
File this flight plan on PilotEdge
Remarks:
Altitude:
(Current/Filed)
27,000ft
Speed:
(Current/Filed)
220kts
Departed: 25-Oct-20 06:08 PM
Arrived: 25-Oct-20 07:00 PM
Distance/Time
Traveled:
197nm/0:52
Distance/Time
To Go:
Arrived

Flight Plot

Page will automatically refresh every two minutes.

Flight plan parsing failed; only flown route is shown


Map Options




Map Legend


Flown Route
Filed Route
Departure Airport
Arrival Airport
Navaid (VOR, NDB)
Fix

Horizontal Profiles

Position Reports

Time Latitude Longitude Heading Altitude Ground
Speed
25-Oct-20 17:57 33.671410 -117.867211 207 61ft 0kts
25-Oct-20 17:58 33.671410 -117.867211 207 61ft 0kts
25-Oct-20 17:59 33.671410 -117.867211 207 61ft 0kts
25-Oct-20 18:00 33.671410 -117.867211 207 61ft 0kts
25-Oct-20 18:01 33.671410 -117.867213 207 61ft 0kts
25-Oct-20 18:02 33.671769 -117.868140 306 61ft 7kts
25-Oct-20 18:03 33.675017 -117.865895 26 61ft 10kts
25-Oct-20 18:04 33.678369 -117.863771 27 61ft 20kts
25-Oct-20 18:05 33.680680 -117.863119 295 61ft 6kts
25-Oct-20 18:06 33.680919 -117.865530 207 61ft 21kts
25-Oct-20 18:07 33.652439 -117.883163 208 892ft 162kts
25-Oct-20 18:08 33.605945 -117.894707 191 3018ft 174kts
25-Oct-20 18:09 33.556561 -117.903699 190 5107ft 185kts
25-Oct-20 18:10 33.529394 -117.946030 261 7054ft 181kts
25-Oct-20 18:11 33.537007 -117.996105 350 9126ft 176kts
25-Oct-20 18:12 33.588231 -118.008046 345 10013ft 212kts
25-Oct-20 18:13 33.648635 -118.022398 345 10317ft 217kts
25-Oct-20 18:14 33.695556 -118.033863 343 13224ft 167kts
25-Oct-20 18:15 33.739919 -118.044516 343 16576ft 157kts
25-Oct-20 18:16 33.781722 -118.052349 2 19196ft 168kts
25-Oct-20 18:17 33.822045 -118.019940 23 22139ft 181kts
25-Oct-20 18:18 33.862099 -117.983675 22 24992ft 183kts
25-Oct-20 18:20 33.903797 -117.946254 23 26971ft 214kts
25-Oct-20 18:21 33.960159 -117.895015 27 26953ft 287kts
25-Oct-20 18:22 34.028347 -117.832420 28 26941ft 324kts
25-Oct-20 18:23 34.098110 -117.760178 38 26930ft 338kts
25-Oct-20 18:24 34.160984 -117.675222 39 26941ft 342kts
25-Oct-20 18:25 34.224294 -117.589232 39 26940ft 343kts
25-Oct-20 18:26 34.287852 -117.503087 38 26935ft 343kts
25-Oct-20 18:27 34.351391 -117.416881 38 26924ft 343kts
25-Oct-20 18:28 34.414959 -117.330434 39 26905ft 344kts
25-Oct-20 18:29 34.478429 -117.243883 39 26912ft 344kts
25-Oct-20 18:30 34.541978 -117.157037 39 26908ft 344kts
25-Oct-20 18:31 34.605368 -117.070193 39 26894ft 345kts
25-Oct-20 18:32 34.669039 -116.982738 39 26868ft 346kts
25-Oct-20 18:33 34.732740 -116.894989 39 26842ft 347kts
25-Oct-20 18:34 34.796473 -116.807002 38 26831ft 347kts
25-Oct-20 18:35 34.860415 -116.718531 39 26487ft 353kts
25-Oct-20 18:36 34.922065 -116.632481 38 24916ft 328kts
25-Oct-20 18:37 34.977024 -116.544175 50 23832ft 331kts
25-Oct-20 18:38 35.022389 -116.442622 52 23829ft 347kts
25-Oct-20 18:38 35.060719 -116.355924 51 23818ft 350kts
25-Oct-20 18:40 35.115202 -116.232113 52 21788ft 349kts
25-Oct-20 18:40 35.152509 -116.147476 52 20323ft 336kts
25-Oct-20 18:42 35.203399 -116.031721 52 18597ft 329kts
25-Oct-20 18:42 35.238849 -115.950670 53 17344ft 321kts
25-Oct-20 18:43 35.280665 -115.855047 55 15857ft 315kts
25-Oct-20 18:44 35.324653 -115.768165 39 14330ft 285kts
25-Oct-20 18:45 35.379511 -115.694728 43 12895ft 307kts
25-Oct-20 18:46 35.438412 -115.616226 44 11434ft 313kts
25-Oct-20 18:47 35.494335 -115.541493 34 9956ft 277kts
25-Oct-20 18:48 35.555001 -115.504004 21 10033ft 243kts
25-Oct-20 18:49 35.618278 -115.466636 21 9971ft 259kts
25-Oct-20 18:50 35.679621 -115.430418 21 9017ft 223kts
25-Oct-20 18:51 35.732921 -115.398306 21 7693ft 210kts
25-Oct-20 18:52 35.783790 -115.367021 21 7100ft 207kts
25-Oct-20 18:53 35.827336 -115.316102 28 7068ft 219kts
25-Oct-20 18:54 35.880671 -115.281377 20 6998ft 213kts
25-Oct-20 18:55 35.936421 -115.249467 19 5649ft 214kts
25-Oct-20 18:56 35.987203 -115.220592 19 4399ft 190kts
25-Oct-20 18:57 36.031735 -115.195183 19 3371ft 154kts
25-Oct-20 18:58 36.063115 -115.177318 17 2548ft 103kts
25-Oct-20 18:59 36.085151 -115.164693 20 2143ft 29kts
25-Oct-20 19:00 36.089420 -115.163548 294 2131ft 0kts
25-Oct-20 19:01 36.089396 -115.165742 212 2137ft 4kts
25-Oct-20 19:02 36.089110 -115.165871 203 2138ft 0kts

Navigation Log

Ident Type
Flight plan parsing failed, navigation log unavailable